createdAt,value
2019-03-25T00:02:12.729Z,12.30
2019-03-25T00:04:44.086Z,18.17
2019-03-25T00:07:15.456Z,11.47
2019-03-25T00:09:46.699Z,13.23
2019-03-25T00:12:18.007Z,14.60
2019-03-25T00:14:49.344Z,15.63
2019-03-25T00:17:20.598Z,18.00
2019-03-25T00:19:51.885Z,12.73
2019-03-25T00:22:23.232Z,18.73
2019-03-25T00:24:54.409Z,11.13
2019-03-25T00:27:25.758Z,16.83
2019-03-25T00:29:57.010Z,14.40
2019-03-25T00:32:28.369Z,15.53
2019-03-25T00:34:59.627Z,11.97
2019-03-25T00:37:30.870Z,15.97
2019-03-25T00:40:02.197Z,13.27
2019-03-25T00:42:33.453Z,15.37
2019-03-25T00:45:04.729Z,12.87
2019-03-25T00:47:35.910Z,13.13
2019-03-25T00:50:07.423Z,12.50
2019-03-25T00:52:38.568Z,14.97
2019-03-25T00:55:09.716Z,13.73
2019-03-25T00:57:40.997Z,12.70
2019-03-25T01:00:12.660Z,12.67
2019-03-25T01:02:43.864Z,12.00
2019-03-25T01:05:15.742Z,17.50
2019-03-25T01:07:47.066Z,15.30
2019-03-25T01:10:18.266Z,10.73
2019-03-25T01:12:49.538Z,16.83
2019-03-25T01:15:20.757Z,12.73
2019-03-25T01:17:52.076Z,12.53
2019-03-25T01:20:23.403Z,16.73
2019-03-25T01:22:54.766Z,15.60
2019-03-25T01:25:26.062Z,15.47
2019-03-25T01:27:57.325Z,14.03
2019-03-25T01:30:28.555Z,21.27
2019-03-25T01:32:59.758Z,14.63
2019-03-25T01:35:30.969Z,15.17
2019-03-25T01:38:02.215Z,18.13
2019-03-25T01:40:33.451Z,16.10
2019-03-25T01:43:04.698Z,15.00
2019-03-25T01:45:36.002Z,23.67
2019-03-25T01:48:07.320Z,22.13
2019-03-25T01:50:38.657Z,15.53
2019-03-25T01:53:09.833Z,15.93
2019-03-25T01:55:41.100Z,17.03
2019-03-25T01:58:12.346Z,18.50
2019-03-25T02:00:43.612Z,19.30
2019-03-25T02:03:14.969Z,22.80
2019-03-25T02:05:46.225Z,18.03
2019-03-25T02:08:17.585Z,23.07
2019-03-25T02:10:48.848Z,19.13
2019-03-25T02:13:20.065Z,14.40
2019-03-25T02:15:51.433Z,25.87
2019-03-25T02:18:22.718Z,18.43
2019-03-25T02:20:54.101Z,18.03
2019-03-25T02:23:25.328Z,17.00
2019-03-25T02:25:56.697Z,14.93
2019-03-25T02:28:27.913Z,18.30
2019-03-25T02:30:59.140Z,18.17
2019-03-25T02:33:30.368Z,12.87
2019-03-25T02:36:01.622Z,18.53
2019-03-25T02:38:32.899Z,16.57
2019-03-25T02:41:04.141Z,14.63
2019-03-25T02:43:35.385Z,13.83
2019-03-25T02:46:06.629Z,16.50
2019-03-25T02:48:37.890Z,15.40
2019-03-25T02:51:09.613Z,15.40
2019-03-25T02:53:40.838Z,17.43
2019-03-25T02:56:12.116Z,12.27
2019-03-25T02:58:43.396Z,14.87
2019-03-25T03:01:14.683Z,21.07
2019-03-25T03:03:45.904Z,18.47
2019-03-25T03:06:17.170Z,21.00
2019-03-25T03:08:48.512Z,17.57
2019-03-25T03:11:19.732Z,21.83
2019-03-25T03:13:50.964Z,17.50
2019-03-25T03:16:22.236Z,19.23
2019-03-25T03:18:53.595Z,18.43
2019-03-25T03:21:24.862Z,19.93
2019-03-25T03:23:56.155Z,20.70
2019-03-25T03:26:27.442Z,14.23
2019-03-25T03:28:58.701Z,16.13
2019-03-25T03:31:29.954Z,24.13
2019-03-25T03:34:01.355Z,18.43
2019-03-25T03:36:32.579Z,17.90
2019-03-25T03:39:04.939Z,18.00
2019-03-25T03:41:36.485Z,19.60
2019-03-25T03:44:07.757Z,16.17
2019-03-25T03:46:38.996Z,19.80
2019-03-25T03:49:10.282Z,21.50
2019-03-25T03:51:41.546Z,16.93
2019-03-25T03:54:13.170Z,20.40
2019-03-25T03:56:44.450Z,18.30
2019-03-25T03:59:16.416Z,16.17
2019-03-25T04:01:47.754Z,23.70
2019-03-25T04:04:19.450Z,18.00
2019-03-25T04:06:50.754Z,20.63
2019-03-25T04:09:22.182Z,19.80
2019-03-25T04:11:56.682Z,20.33
2019-03-25T04:14:28.038Z,26.70
2019-03-25T04:16:59.312Z,15.43
2019-03-25T04:19:30.563Z,16.50
2019-03-25T04:22:01.814Z,23.30
2019-03-25T04:24:33.026Z,13.10
2019-03-25T04:27:05.248Z,22.43
2019-03-25T04:29:36.554Z,20.60
2019-03-25T04:32:07.830Z,18.10
2019-03-25T04:34:39.106Z,19.10
2019-03-25T04:37:10.307Z,12.27
2019-03-25T04:39:41.533Z,15.70
2019-03-25T04:42:12.785Z,18.50
2019-03-25T04:44:44.062Z,24.60
2019-03-25T04:47:15.308Z,18.27
2019-03-25T04:49:46.544Z,21.47
2019-03-25T04:52:17.781Z,24.63
2019-03-25T04:54:49.049Z,20.37
2019-03-25T04:57:20.277Z,19.37
2019-03-25T04:59:51.553Z,20.00
2019-03-25T05:02:22.927Z,13.03
2019-03-25T05:04:54.133Z,20.57
2019-03-25T05:07:25.389Z,19.90
2019-03-25T05:09:56.676Z,16.70
2019-03-25T05:12:28.022Z,15.67
2019-03-25T05:14:59.271Z,19.73
2019-03-25T05:17:30.565Z,19.93
2019-03-25T05:20:01.854Z,20.33
2019-03-25T05:22:33.148Z,16.60
2019-03-25T05:25:04.884Z,14.93
2019-03-25T05:27:36.163Z,16.73
2019-03-25T05:30:08.107Z,19.60
2019-03-25T05:32:39.365Z,16.67
2019-03-25T05:35:10.592Z,18.37
2019-03-25T05:37:41.748Z,20.97
2019-03-25T05:40:13.563Z,14.27
2019-03-25T05:42:44.829Z,14.40
2019-03-25T05:45:16.136Z,18.30
2019-03-25T05:47:47.382Z,16.63
2019-03-25T05:50:18.649Z,24.13
2019-03-25T05:52:49.995Z,20.00
2019-03-25T05:55:21.244Z,24.07
2019-03-25T05:57:52.819Z,26.27
2019-03-25T06:00:26.396Z,20.87
2019-03-25T06:02:57.643Z,18.43
2019-03-25T06:05:28.939Z,19.73
2019-03-25T06:08:00.204Z,18.57
2019-03-25T06:10:31.521Z,29.77
2019-03-25T06:13:02.773Z,52.80
2019-03-25T06:15:34.003Z,60.43
2019-03-25T06:18:06.520Z,120.67
2019-03-25T06:20:37.786Z,226.40
2019-03-25T06:23:09.070Z,257.93
2019-03-25T06:25:40.320Z,103.70
2019-03-25T06:28:11.612Z,58.03
2019-03-25T06:30:42.804Z,25.37
2019-03-25T06:33:14.039Z,23.63
2019-03-25T06:35:45.246Z,25.33
2019-03-25T06:38:16.561Z,25.10
2019-03-25T06:40:49.216Z,19.33
2019-03-25T06:43:20.625Z,18.43
2019-03-25T06:45:51.821Z,20.63
2019-03-25T06:48:23.122Z,20.53
2019-03-25T06:50:54.372Z,21.53
2019-03-25T06:53:25.550Z,19.53
2019-03-25T06:55:56.748Z,22.03
2019-03-25T06:58:28.043Z,26.60
2019-03-25T07:00:59.489Z,27.20
2019-03-25T07:03:30.676Z,23.63
2019-03-25T07:06:01.977Z,21.30
2019-03-25T07:08:33.249Z,23.80
2019-03-25T07:11:04.845Z,28.90
2019-03-25T07:13:36.109Z,23.37
2019-03-25T07:16:07.458Z,22.57
2019-03-25T07:18:38.724Z,13.20
2019-03-25T07:21:09.958Z,18.00
2019-03-25T07:23:41.207Z,21.10
2019-03-25T07:26:12.474Z,22.07
2019-03-25T07:28:43.832Z,15.77
2019-03-25T07:31:15.077Z,16.93
2019-03-25T07:33:46.433Z,19.60
2019-03-25T07:36:17.730Z,19.00
2019-03-25T07:38:48.937Z,21.00
2019-03-25T07:41:20.183Z,19.43
2019-03-25T07:43:51.369Z,25.00
2019-03-25T07:46:22.685Z,29.23
2019-03-25T07:48:54.021Z,22.57
2019-03-25T07:51:25.278Z,26.10
2019-03-25T07:53:56.515Z,33.10
2019-03-25T07:56:27.835Z,21.50
2019-03-25T07:58:59.177Z,31.07
2019-03-25T08:01:30.356Z,19.53
2019-03-25T08:04:01.625Z,31.83
2019-03-25T08:06:32.886Z,30.87
2019-03-25T08:09:08.367Z,21.47
2019-03-25T08:11:39.718Z,17.40
2019-03-25T08:14:10.987Z,22.30
2019-03-25T08:16:42.203Z,30.27
2019-03-25T08:19:13.412Z,20.50
2019-03-25T08:21:44.737Z,20.60
2019-03-25T08:24:16.024Z,24.40
2019-03-25T08:26:47.260Z,28.70
2019-03-25T08:29:18.556Z,21.00
2019-03-25T08:31:49.772Z,30.77
2019-03-25T08:34:21.047Z,25.20
2019-03-25T08:36:52.245Z,19.87
2019-03-25T08:39:23.482Z,24.00
2019-03-25T08:41:54.858Z,23.57
2019-03-25T08:44:26.135Z,22.40
2019-03-25T08:46:57.333Z,32.33
2019-03-25T08:49:28.589Z,22.90
2019-03-25T08:51:59.826Z,19.87
2019-03-25T08:54:31.023Z,17.97
2019-03-25T08:57:02.317Z,20.00
2019-03-25T08:59:33.534Z,16.80
2019-03-25T09:02:05.020Z,19.60
2019-03-25T09:04:36.333Z,19.77
2019-03-25T09:07:07.752Z,25.00
2019-03-25T09:09:39.109Z,19.60
2019-03-25T09:12:10.385Z,16.13
2019-03-25T09:14:41.670Z,13.23
2019-03-25T09:17:12.907Z,15.13
2019-03-25T09:19:44.134Z,21.00
2019-03-25T09:22:15.491Z,15.53
2019-03-25T09:24:46.698Z,17.53
2019-03-25T09:27:18.107Z,15.17
2019-03-25T09:29:49.329Z,18.27
2019-03-25T09:32:20.466Z,13.83
2019-03-25T09:34:51.702Z,17.87
2019-03-25T09:37:22.949Z,14.03
2019-03-25T09:39:54.245Z,11.60
2019-03-25T09:42:25.445Z,9.93
2019-03-25T09:44:56.578Z,12.00
2019-03-25T09:47:27.884Z,13.20
2019-03-25T09:49:59.121Z,13.13
2019-03-25T09:52:38.397Z,12.13
2019-03-25T09:55:03.264Z,15.53
2019-03-25T09:57:34.524Z,16.23
2019-03-25T10:00:07.948Z,11.20
2019-03-25T10:02:39.204Z,14.80
2019-03-25T10:05:10.871Z,13.67
2019-03-25T10:07:42.197Z,14.97
2019-03-25T10:10:13.894Z,12.37
2019-03-25T10:12:45.260Z,12.20
2019-03-25T10:15:16.647Z,8.77
2019-03-25T10:17:47.913Z,14.17
2019-03-25T10:20:19.101Z,15.07
2019-03-25T10:22:50.336Z,8.60
2019-03-25T10:25:21.483Z,8.77
2019-03-25T10:27:53.581Z,10.83
2019-03-25T10:30:25.257Z,14.57
2019-03-25T10:32:56.402Z,11.33
2019-03-25T10:35:27.662Z,8.23
2019-03-25T10:37:58.897Z,11.83
2019-03-25T10:40:30.051Z,9.60
2019-03-25T10:43:01.178Z,7.60
2019-03-25T10:45:32.452Z,12.37
2019-03-25T10:48:03.759Z,14.00
2019-03-25T10:50:36.127Z,13.97
2019-03-25T10:53:07.906Z,8.67
2019-03-25T10:55:39.041Z,11.57
2019-03-25T10:58:10.200Z,14.30
2019-03-25T11:00:41.413Z,16.63
2019-03-25T11:03:12.855Z,15.53
2019-03-25T11:05:44.627Z,13.23
2019-03-25T11:08:15.854Z,7.87
2019-03-25T11:10:47.040Z,10.33
2019-03-25T11:13:18.319Z,11.00
2019-03-25T11:15:49.479Z,8.70
2019-03-25T11:18:20.702Z,8.50
2019-03-25T11:20:51.954Z,8.40
2019-03-25T11:23:23.182Z,14.90
2019-03-25T11:25:54.308Z,8.10
2019-03-25T11:28:25.414Z,12.83
2019-03-25T11:30:58.711Z,8.43
2019-03-25T11:33:30.128Z,13.33
2019-03-25T11:36:02.815Z,14.20
2019-03-25T11:38:34.131Z,12.17
2019-03-25T11:41:05.407Z,7.33
2019-03-25T11:43:36.555Z,9.10
2019-03-25T11:46:07.852Z,7.60
2019-03-25T11:48:39.289Z,10.97
2019-03-25T11:51:10.554Z,9.87
2019-03-25T11:53:41.894Z,10.40
2019-03-25T11:56:13.259Z,12.10
2019-03-25T11:58:44.568Z,5.70
2019-03-25T12:01:15.939Z,13.80
2019-03-25T12:03:47.206Z,12.20
2019-03-25T12:06:18.471Z,11.80
2019-03-25T12:08:49.809Z,14.23
2019-03-25T12:11:21.067Z,13.43
2019-03-25T12:13:52.221Z,20.97
2019-03-25T12:16:23.668Z,7.70
2019-03-25T12:18:54.956Z,10.13
2019-03-25T12:21:26.292Z,8.73
2019-03-25T12:24:16.373Z,7.67
2019-03-25T12:26:47.618Z,9.23
2019-03-25T12:29:29.234Z,7.80
2019-03-25T12:31:51.841Z,7.87
2019-03-25T12:34:23.166Z,11.17
2019-03-25T12:36:54.534Z,6.10
2019-03-25T12:39:25.830Z,5.80
2019-03-25T12:41:58.237Z,6.67
2019-03-25T12:44:29.474Z,5.93
2019-03-25T12:47:00.781Z,2.37
2019-03-25T12:49:32.085Z,3.47
2019-03-25T12:52:03.364Z,4.27
2019-03-25T12:54:34.539Z,3.97
2019-03-25T12:57:05.766Z,3.87
2019-03-25T12:59:41.448Z,3.07
2019-03-25T13:02:09.899Z,8.83
2019-03-25T13:04:41.154Z,7.23
2019-03-25T13:07:12.492Z,6.80
2019-03-25T13:09:43.858Z,6.33
2019-03-25T13:12:15.465Z,9.37
2019-03-25T13:14:46.646Z,6.27
2019-03-25T13:17:17.907Z,2.40
2019-03-25T13:19:49.245Z,3.33
2019-03-25T13:22:20.560Z,5.90
2019-03-25T13:24:52.757Z,10.20
2019-03-25T13:27:24.143Z,7.53
2019-03-25T13:29:55.409Z,6.20
2019-03-25T13:32:26.726Z,8.47
2019-03-25T13:34:58.082Z,2.80
2019-03-25T13:37:29.328Z,5.30
2019-03-25T13:40:00.629Z,7.27
2019-03-25T13:42:31.883Z,7.97
2019-03-25T13:45:03.169Z,8.97
2019-03-25T13:47:34.514Z,7.27
2019-03-25T13:50:05.920Z,3.73
2019-03-25T13:52:37.147Z,4.73
2019-03-25T13:55:08.583Z,5.67
2019-03-25T13:57:39.859Z,8.70
2019-03-25T14:00:11.416Z,6.23
2019-03-25T14:02:42.722Z,8.30
2019-03-25T14:05:14.012Z,4.43
2019-03-25T14:07:45.325Z,5.63
2019-03-25T14:10:16.795Z,6.33
2019-03-25T14:12:48.078Z,6.47
2019-03-25T14:15:19.304Z,12.50
2019-03-25T14:17:50.590Z,8.47
2019-03-25T14:20:21.896Z,8.77
2019-03-25T14:22:53.153Z,6.60
2019-03-25T14:25:24.470Z,9.73
2019-03-25T14:27:55.816Z,12.63
2019-03-25T14:30:27.162Z,9.43
2019-03-25T14:32:58.459Z,9.57
2019-03-25T14:35:29.784Z,13.17
2019-03-25T14:38:00.991Z,12.13
2019-03-25T14:40:32.282Z,8.53
2019-03-25T14:43:03.553Z,12.00
2019-03-25T14:45:34.880Z,9.33
2019-03-25T14:48:06.227Z,4.73
2019-03-25T14:50:37.543Z,4.83
2019-03-25T14:53:08.780Z,8.53
2019-03-25T14:55:40.065Z,5.73
2019-03-25T14:58:11.222Z,4.17
2019-03-25T15:00:42.528Z,13.50
2019-03-25T15:03:13.874Z,5.60
2019-03-25T15:05:45.191Z,3.67
2019-03-25T15:08:16.458Z,7.83
2019-03-25T15:10:53.554Z,9.37
2019-03-25T15:13:20.610Z,5.37
2019-03-25T15:15:51.838Z,3.13
2019-03-25T15:18:23.153Z,7.10
2019-03-25T15:20:54.479Z,5.83
2019-03-25T15:23:25.794Z,7.30
2019-03-25T15:25:57.082Z,7.20
2019-03-25T15:28:28.412Z,8.43
2019-03-25T15:30:59.755Z,5.73
2019-03-25T15:33:31.042Z,5.63
2019-03-25T15:36:02.339Z,6.50
2019-03-25T15:38:33.565Z,8.73
2019-03-25T15:41:04.851Z,9.07
2019-03-25T15:43:36.106Z,12.77
2019-03-25T15:46:07.413Z,6.67
2019-03-25T15:48:38.729Z,12.27
2019-03-25T15:51:10.020Z,9.70
2019-03-25T15:53:41.212Z,11.70
2019-03-25T15:56:12.439Z,12.00
2019-03-25T15:58:43.626Z,7.67
2019-03-25T16:01:14.832Z,8.43
2019-03-25T16:03:46.029Z,10.83
2019-03-25T16:06:17.287Z,11.20
2019-03-25T16:08:48.543Z,8.87
2019-03-25T16:11:19.838Z,11.27
2019-03-25T16:13:51.015Z,17.20
2019-03-25T16:16:22.201Z,12.47
2019-03-25T16:18:53.536Z,13.87
2019-03-25T16:21:24.711Z,13.10
2019-03-25T16:23:55.920Z,14.73
2019-03-25T16:26:27.259Z,15.37
2019-03-25T16:28:58.484Z,13.87
2019-03-25T16:31:29.722Z,9.17
2019-03-25T16:34:00.986Z,7.80
2019-03-25T16:36:32.228Z,19.17
2019-03-25T16:39:04.310Z,11.53
2019-03-25T16:41:35.516Z,13.97
2019-03-25T16:44:06.762Z,10.13
2019-03-25T16:46:37.980Z,9.30
2019-03-25T16:49:09.304Z,8.63
2019-03-25T16:51:40.652Z,9.67
2019-03-25T16:54:11.898Z,4.93
2019-03-25T16:56:43.094Z,9.27
2019-03-25T16:59:14.373Z,8.43
2019-03-25T17:01:45.547Z,8.97
2019-03-25T17:04:16.847Z,13.13
2019-03-25T17:06:48.101Z,7.73
2019-03-25T17:09:19.366Z,6.60
2019-03-25T17:11:50.554Z,5.73
2019-03-25T17:14:21.798Z,8.53
2019-03-25T17:16:53.025Z,13.77
2019-03-25T17:19:24.321Z,6.87
2019-03-25T17:21:58.394Z,7.43
2019-03-25T17:24:30.055Z,6.10
2019-03-25T17:27:01.261Z,6.53
2019-03-25T17:29:32.538Z,9.23
2019-03-25T17:32:03.706Z,5.90
2019-03-25T17:34:35.087Z,10.20
2019-03-25T17:37:06.406Z,13.40
2019-03-25T17:39:37.764Z,20.60
2019-03-25T17:42:08.999Z,15.20
2019-03-25T17:44:40.275Z,10.27
2019-03-25T17:47:11.686Z,11.53
2019-03-25T17:49:42.998Z,8.20
2019-03-25T17:52:14.168Z,6.87
2019-03-25T17:54:45.452Z,9.20
2019-03-25T17:57:18.337Z,11.53
2019-03-25T17:59:49.635Z,9.70
2019-03-25T18:02:20.861Z,4.90
2019-03-25T18:04:52.107Z,10.03
2019-03-25T18:07:23.337Z,12.33
2019-03-25T18:09:54.610Z,7.83
2019-03-25T18:12:26.026Z,25.10
2019-03-25T18:14:57.293Z,14.73
2019-03-25T18:17:29.259Z,12.77
2019-03-25T18:20:00.580Z,8.97
2019-03-25T18:22:39.500Z,6.63
2019-03-25T18:25:04.942Z,10.03
2019-03-25T18:27:36.238Z,17.53
2019-03-25T18:30:08.362Z,13.77
2019-03-25T18:32:39.588Z,11.30
2019-03-25T18:35:14.290Z,12.10
2019-03-25T18:37:45.512Z,17.17
2019-03-25T18:40:16.799Z,18.60
2019-03-25T18:42:48.106Z,13.77
2019-03-25T18:45:19.544Z,16.13
2019-03-25T18:47:53.207Z,14.23
2019-03-25T18:50:23.784Z,10.87
2019-03-25T18:52:56.841Z,14.20
2019-03-25T18:55:28.038Z,11.27
2019-03-25T18:57:59.382Z,13.53
2019-03-25T19:00:34.704Z,12.40
2019-03-25T19:03:05.950Z,9.73
2019-03-25T19:05:37.262Z,9.23
2019-03-25T19:08:09.413Z,9.87
2019-03-25T19:10:40.735Z,12.50
2019-03-25T19:13:12.036Z,22.00
2019-03-25T19:15:43.391Z,10.10
2019-03-25T19:18:14.687Z,13.00
2019-03-25T19:20:46.084Z,10.93
2019-03-25T19:23:17.339Z,12.53
2019-03-25T19:25:48.608Z,15.53
2019-03-25T19:28:19.914Z,9.20
2019-03-25T19:30:51.291Z,10.70
2019-03-25T19:33:22.566Z,9.77
2019-03-25T19:35:53.982Z,10.23
2019-03-25T19:38:25.309Z,9.60
2019-03-25T19:40:56.556Z,15.10
2019-03-25T19:43:27.902Z,8.50
2019-03-25T19:45:59.227Z,12.60
2019-03-25T19:48:30.503Z,12.30
2019-03-25T19:51:01.838Z,11.73
2019-03-25T19:53:33.148Z,10.80
2019-03-25T19:56:04.374Z,12.47
2019-03-25T19:58:35.695Z,12.93
2019-03-25T20:01:06.979Z,16.30
2019-03-25T20:03:38.262Z,11.13
2019-03-25T20:06:09.688Z,14.40
2019-03-25T20:08:40.953Z,11.77
2019-03-25T20:11:12.242Z,10.73
2019-03-25T20:13:43.552Z,12.87
2019-03-25T20:16:14.903Z,11.67
2019-03-25T20:18:46.161Z,17.90
2019-03-25T20:21:17.562Z,10.53
2019-03-25T20:23:50.490Z,14.10
2019-03-25T20:26:21.854Z,11.83
2019-03-25T20:28:53.145Z,11.90
2019-03-25T20:31:24.576Z,14.70
2019-03-25T20:33:55.786Z,11.10
2019-03-25T20:36:27.190Z,15.47
2019-03-25T20:38:58.489Z,16.43
2019-03-25T20:41:29.778Z,14.53
2019-03-25T20:44:01.128Z,18.97
2019-03-25T20:46:32.540Z,14.83
2019-03-25T20:49:03.798Z,14.23
2019-03-25T20:51:35.075Z,17.33
2019-03-25T20:54:06.312Z,18.27
2019-03-25T20:56:37.532Z,14.50
2019-03-25T20:59:08.948Z,13.00
2019-03-25T21:01:40.289Z,6.73
2019-03-25T21:04:11.586Z,9.57
2019-03-25T21:06:43.024Z,6.53
2019-03-25T21:09:14.422Z,9.83
2019-03-25T21:11:45.697Z,10.77
2019-03-25T21:14:17.066Z,16.13
2019-03-25T21:16:48.376Z,16.57
2019-03-25T21:19:19.904Z,19.77
2019-03-25T21:21:51.359Z,13.83
2019-03-25T21:24:22.818Z,12.60
2019-03-25T21:26:54.112Z,9.97
2019-03-25T21:29:25.382Z,9.53
2019-03-25T21:31:56.779Z,14.27
2019-03-25T21:34:28.013Z,10.90
2019-03-25T21:36:59.346Z,8.40
2019-03-25T21:39:30.774Z,11.50
2019-03-25T21:42:02.102Z,11.23
2019-03-25T21:44:33.448Z,10.27
2019-03-25T21:47:04.763Z,10.53
2019-03-25T21:49:36.132Z,10.57
2019-03-25T21:52:07.399Z,10.27
2019-03-25T21:54:38.652Z,8.87
2019-03-25T21:57:09.900Z,16.27
2019-03-25T21:59:41.316Z,17.40
2019-03-25T22:02:12.554Z,14.50
2019-03-25T22:04:43.813Z,22.87
2019-03-25T22:07:15.016Z,16.80
2019-03-25T22:09:46.333Z,13.47
2019-03-25T22:12:17.709Z,12.97
2019-03-25T22:14:49.007Z,16.73
2019-03-25T22:17:20.282Z,21.23
2019-03-25T22:19:51.549Z,10.60
2019-03-25T22:22:22.890Z,13.13
2019-03-25T22:24:54.284Z,20.67
2019-03-25T22:27:25.598Z,19.93
2019-03-25T22:29:56.836Z,15.23
2019-03-25T22:32:28.171Z,12.97
2019-03-25T22:34:59.428Z,18.63
2019-03-25T22:37:30.684Z,19.20
2019-03-25T22:40:02.011Z,15.77
2019-03-25T22:42:33.422Z,26.13
2019-03-25T22:45:05.014Z,16.60
2019-03-25T22:47:36.530Z,19.27
2019-03-25T22:50:09.846Z,17.30
2019-03-25T22:52:41.135Z,16.53
2019-03-25T22:55:12.460Z,13.67
2019-03-25T22:57:43.696Z,19.30
2019-03-25T23:00:18.673Z,23.87
2019-03-25T23:02:49.940Z,17.00
2019-03-25T23:05:21.186Z,18.83
2019-03-25T23:07:52.412Z,20.13
2019-03-25T23:10:23.709Z,18.80
2019-03-25T23:12:55.075Z,19.33
2019-03-25T23:15:26.363Z,21.47
2019-03-25T23:17:57.576Z,20.60
2019-03-25T23:20:28.882Z,19.73
2019-03-25T23:23:00.191Z,21.33
2019-03-25T23:25:31.387Z,27.30
2019-03-25T23:28:02.667Z,14.53
2019-03-25T23:30:33.938Z,21.87
2019-03-25T23:33:05.277Z,17.50
2019-03-25T23:35:36.633Z,20.73
2019-03-25T23:38:07.909Z,17.00
2019-03-25T23:40:39.245Z,18.47
2019-03-25T23:43:10.632Z,20.47
2019-03-25T23:45:41.829Z,19.03
2019-03-25T23:48:13.115Z,18.87
2019-03-25T23:50:44.404Z,21.50
2019-03-25T23:53:15.688Z,16.47
2019-03-25T23:55:47.004Z,17.80
2019-03-25T23:58:18.293Z,25.53
